createdAt,value
2019-05-09T00:00:46.103Z,7.43
2019-05-09T00:03:17.239Z,7.43
2019-05-09T00:05:48.308Z,8.47
2019-05-09T00:08:19.448Z,7.63
2019-05-09T00:10:50.476Z,8.03
2019-05-09T00:13:23.572Z,9.43
2019-05-09T00:15:54.297Z,8.47
2019-05-09T00:18:25.355Z,10.40
2019-05-09T00:21:04.144Z,8.07
2019-05-09T00:23:35.248Z,10.43
2019-05-09T00:26:06.660Z,8.10
2019-05-09T00:28:40.087Z,8.13
2019-05-09T00:31:23.886Z,9.40
2019-05-09T00:33:59.301Z,8.10
2019-05-09T00:36:30.369Z,8.90
2019-05-09T00:39:01.402Z,8.73
2019-05-09T00:41:33.152Z,7.83
2019-05-09T00:44:10.723Z,9.80
2019-05-09T00:46:54.431Z,8.07
2019-05-09T00:49:26.383Z,7.50
2019-05-09T00:51:57.563Z,7.60
2019-05-09T00:54:29.646Z,8.23
2019-05-09T00:57:03.022Z,9.23
2019-05-09T00:59:33.418Z,8.93
2019-05-09T01:02:04.442Z,8.93
2019-05-09T01:04:35.482Z,9.33
2019-05-09T01:07:06.546Z,8.63
2019-05-09T01:09:37.587Z,8.70
2019-05-09T01:12:08.643Z,8.73
2019-05-09T01:14:39.707Z,8.53
2019-05-09T01:17:13.276Z,8.53
2019-05-09T01:19:43.562Z,9.10
2019-05-09T01:22:14.599Z,9.17
2019-05-09T01:24:45.662Z,10.07
2019-05-09T01:27:16.762Z,10.00
2019-05-09T01:29:48.247Z,10.00
2019-05-09T01:32:30.605Z,9.90
2019-05-09T01:35:03.703Z,8.90
2019-05-09T01:37:34.334Z,9.40
2019-05-09T01:40:05.660Z,9.43
2019-05-09T01:42:36.734Z,9.30
2019-05-09T01:45:07.887Z,9.73
2019-05-09T01:47:38.998Z,13.50
2019-05-09T01:50:11.213Z,10.00
2019-05-09T01:52:43.860Z,10.57
2019-05-09T01:55:14.998Z,9.87
2019-05-09T01:57:47.983Z,9.50
2019-05-09T02:00:18.685Z,9.97
2019-05-09T02:02:50.041Z,13.83
2019-05-09T02:05:21.222Z,12.03
2019-05-09T02:07:54.238Z,9.63
2019-05-09T02:10:25.028Z,9.17
2019-05-09T02:12:56.059Z,10.40
2019-05-09T02:15:36.611Z,11.00
2019-05-09T02:18:23.441Z,11.20
2019-05-09T02:20:54.563Z,10.77
2019-05-09T02:23:25.570Z,10.90
2019-05-09T02:25:56.641Z,10.53
2019-05-09T02:28:27.686Z,13.00
2019-05-09T02:30:58.709Z,10.47
2019-05-09T02:33:29.833Z,11.07
2019-05-09T02:36:01.875Z,12.57
2019-05-09T02:38:33.352Z,11.93
2019-05-09T02:41:04.403Z,10.47
2019-05-09T02:43:38.678Z,10.80
2019-05-09T02:46:29.382Z,10.37
2019-05-09T02:49:00.095Z,13.23
2019-05-09T02:51:31.216Z,10.10
2019-05-09T02:54:02.457Z,12.60
2019-05-09T02:56:33.555Z,10.33
2019-05-09T02:59:11.814Z,9.97
2019-05-09T03:04:58.131Z,11.20
2019-05-09T03:07:48.616Z,10.03
2019-05-09T03:10:21.294Z,10.77
2019-05-09T03:12:53.712Z,12.37
2019-05-09T03:15:24.867Z,10.37
2019-05-09T03:17:59.526Z,11.70
2019-05-09T03:20:48.949Z,11.03
2019-05-09T03:23:19.471Z,10.70
2019-05-09T03:25:50.835Z,10.40
2019-05-09T03:28:40.539Z,10.37
2019-05-09T03:31:12.508Z,10.10
2019-05-09T03:33:43.606Z,11.23
2019-05-09T03:36:14.748Z,11.13
2019-05-09T03:38:47.550Z,10.67
2019-05-09T03:41:18.822Z,10.53
2019-05-09T03:43:49.914Z,9.37
2019-05-09T03:46:43.027Z,10.73
2019-05-09T03:49:14.708Z,9.53
2019-05-09T03:51:48.079Z,9.63
2019-05-09T03:54:18.580Z,11.73
2019-05-09T03:56:57.128Z,10.47
2019-05-09T03:59:27.916Z,9.83
2019-05-09T04:01:59.239Z,11.10
2019-05-09T04:04:31.409Z,11.23
2019-05-09T04:07:02.510Z,10.33
2019-05-09T04:09:37.471Z,9.50
2019-05-09T04:12:08.704Z,15.47
2019-05-09T04:14:39.821Z,11.20
2019-05-09T04:17:12.417Z,10.10
2019-05-09T04:19:43.591Z,11.93
2019-05-09T04:22:14.702Z,10.77
2019-05-09T04:24:47.380Z,11.60
2019-05-09T04:27:22.969Z,10.00
2019-05-09T04:29:54.019Z,11.10
2019-05-09T04:32:27.276Z,10.33
2019-05-09T04:34:57.893Z,10.23
2019-05-09T04:37:31.070Z,11.47
2019-05-09T04:40:03.333Z,10.00
2019-05-09T04:42:43.067Z,12.43
2019-05-09T04:45:21.711Z,10.23
2019-05-09T04:47:52.739Z,10.43
2019-05-09T04:50:25.035Z,11.27
2019-05-09T04:52:58.041Z,10.57
2019-05-09T04:55:30.818Z,10.73
2019-05-09T04:58:01.887Z,11.17
2019-05-09T05:00:51.862Z,11.83
2019-05-09T05:03:23.003Z,14.27
2019-05-09T05:05:54.129Z,11.13
2019-05-09T05:08:25.186Z,11.40
2019-05-09T05:10:58.166Z,11.43
2019-05-09T05:13:29.744Z,10.67
2019-05-09T05:16:01.115Z,11.83
2019-05-09T05:18:32.197Z,11.83
2019-05-09T05:21:03.274Z,10.87
2019-05-09T05:23:42.815Z,11.73
2019-05-09T05:26:14.556Z,11.20
2019-05-09T05:28:47.479Z,12.00
2019-05-09T05:31:18.631Z,11.27
2019-05-09T05:33:57.793Z,11.83
2019-05-09T05:36:29.142Z,10.90
2019-05-09T05:39:00.202Z,12.47
2019-05-09T05:41:31.359Z,12.47
2019-05-09T05:44:02.420Z,12.80
2019-05-09T05:46:51.198Z,13.17
2019-05-09T05:49:22.318Z,12.57
2019-05-09T05:51:53.373Z,12.07
2019-05-09T05:54:24.488Z,12.30
2019-05-09T05:56:57.651Z,12.43
2019-05-09T05:59:28.757Z,14.07
2019-05-09T06:02:00.108Z,12.80
2019-05-09T06:04:31.160Z,12.53
2019-05-09T06:07:02.352Z,13.27
2019-05-09T06:09:41.600Z,13.03
2019-05-09T06:12:12.771Z,13.33
2019-05-09T06:14:43.938Z,14.07
2019-05-09T06:17:15.065Z,15.13
2019-05-09T06:19:48.246Z,14.93
2019-05-09T06:22:19.023Z,14.30
2019-05-09T06:24:51.144Z,15.80
2019-05-09T06:27:22.293Z,14.67
2019-05-09T06:29:53.507Z,15.90
2019-05-09T06:32:24.612Z,15.33
2019-05-09T06:34:57.646Z,14.80
2019-05-09T06:37:28.446Z,14.93
2019-05-09T06:40:00.596Z,15.20
2019-05-09T06:42:31.763Z,15.20
2019-05-09T06:45:12.095Z,15.40
2019-05-09T06:47:44.827Z,14.10
2019-05-09T06:50:18.646Z,17.33
2019-05-09T06:52:49.893Z,17.50
2019-05-09T06:55:22.039Z,19.73
2019-05-09T06:57:53.133Z,15.30
2019-05-09T07:00:38.601Z,15.33
2019-05-09T07:03:18.486Z,16.43
2019-05-09T07:06:03.836Z,15.30
2019-05-09T07:08:39.519Z,16.33
2019-05-09T07:11:13.619Z,16.73
2019-05-09T07:13:47.146Z,15.97
2019-05-09T07:16:18.688Z,15.83
2019-05-09T07:18:50.051Z,15.93
2019-05-09T07:21:21.211Z,15.90
2019-05-09T07:23:52.381Z,17.93
2019-05-09T07:26:28.427Z,18.33
2019-05-09T07:28:59.661Z,17.67
2019-05-09T07:31:44.328Z,17.50
2019-05-09T07:34:47.478Z,19.60
2019-05-09T07:37:18.705Z,18.93
2019-05-09T07:39:49.790Z,18.10
2019-05-09T07:42:20.892Z,16.33
2019-05-09T07:44:52.598Z,19.93
2019-05-09T07:47:23.745Z,17.73
2019-05-09T07:49:54.831Z,17.63
2019-05-09T07:52:28.249Z,17.37
2019-05-09T07:54:58.589Z,15.47
2019-05-09T07:57:29.659Z,17.83
2019-05-09T08:00:00.712Z,16.67
2019-05-09T08:02:31.853Z,17.20
2019-05-09T08:05:02.915Z,18.20
2019-05-09T08:07:34.023Z,18.97
2019-05-09T08:10:05.475Z,18.73
2019-05-09T08:12:38.986Z,18.20
2019-05-09T08:15:16.473Z,17.53
2019-05-09T08:17:42.238Z,18.47
2019-05-09T08:20:13.976Z,18.73
2019-05-09T08:22:52.232Z,19.20
2019-05-09T08:25:18.403Z,20.33
2019-05-09T08:27:49.558Z,19.13
2019-05-09T08:30:20.985Z,18.37
2019-05-09T08:32:52.163Z,20.40
2019-05-09T08:35:23.288Z,20.93
2019-05-09T08:37:54.484Z,19.67
2019-05-09T08:40:28.072Z,19.83
2019-05-09T08:42:58.987Z,20.00
2019-05-09T08:45:31.477Z,20.60
2019-05-09T08:48:04.943Z,21.33
2019-05-09T08:50:48.873Z,22.53
2019-05-09T08:53:19.948Z,20.57
2019-05-09T08:55:51.100Z,20.50
2019-05-09T08:58:22.259Z,20.60
2019-05-09T09:00:53.493Z,21.13
2019-05-09T09:03:24.549Z,19.37
2019-05-09T09:05:57.719Z,19.87
2019-05-09T09:08:28.541Z,22.07
2019-05-09T09:10:59.718Z,19.00
2019-05-09T09:13:30.895Z,20.00
2019-05-09T09:16:14.370Z,21.07
2019-05-09T09:18:35.725Z,19.57
2019-05-09T09:21:08.056Z,18.13
2019-05-09T09:23:46.581Z,19.70
2019-05-09T09:26:13.284Z,19.37
2019-05-09T09:28:44.499Z,21.37
2019-05-09T09:31:18.010Z,19.30
2019-05-09T09:33:49.504Z,18.90
2019-05-09T09:36:20.709Z,18.37
2019-05-09T09:38:52.915Z,20.90
2019-05-09T09:41:25.160Z,19.70
2019-05-09T09:43:58.206Z,19.17
2019-05-09T09:46:29.158Z,18.97
2019-05-09T09:49:00.295Z,20.40
2019-05-09T09:51:31.334Z,21.07
2019-05-09T09:54:02.563Z,20.63
2019-05-09T09:56:35.488Z,19.10
2019-05-09T09:59:28.023Z,19.97
2019-05-09T10:01:58.555Z,18.90
2019-05-09T10:04:30.570Z,18.83
2019-05-09T10:07:01.745Z,20.23
2019-05-09T10:09:32.856Z,20.70
2019-05-09T10:12:04.147Z,20.50
2019-05-09T10:14:39.120Z,21.93
2019-05-09T10:17:29.168Z,22.20
2019-05-09T10:20:10.836Z,21.00
2019-05-09T10:22:46.091Z,21.23
2019-05-09T10:25:14.729Z,20.10
2019-05-09T10:27:47.994Z,21.27
2019-05-09T10:30:23.444Z,19.97
2019-05-09T10:32:54.494Z,19.13
2019-05-09T10:35:27.823Z,21.50
2019-05-09T10:37:59.070Z,19.27
2019-05-09T10:41:30.738Z,20.60
2019-05-09T10:44:08.576Z,20.27
2019-05-09T10:46:57.103Z,20.83
2019-05-09T10:49:23.847Z,19.67
2019-05-09T10:51:54.873Z,19.77
2019-05-09T10:54:27.849Z,20.23
2019-05-09T10:56:59.795Z,21.83
2019-05-09T10:59:30.859Z,20.97
2019-05-09T11:02:01.969Z,21.53
2019-05-09T11:04:37.939Z,20.80
2019-05-09T11:07:09.102Z,22.10
2019-05-09T11:09:40.161Z,23.53
2019-05-09T11:12:12.295Z,25.00
2019-05-09T11:14:43.366Z,20.90
2019-05-09T11:17:19.252Z,20.23
2019-05-09T11:19:48.479Z,20.57
2019-05-09T11:22:23.317Z,20.33
2019-05-09T11:24:52.417Z,17.53
2019-05-09T11:27:24.576Z,19.40
2019-05-09T11:29:57.879Z,18.33
2019-05-09T11:32:28.328Z,18.77
2019-05-09T11:34:59.385Z,17.07
2019-05-09T11:37:30.500Z,16.30
2019-05-09T11:40:01.573Z,16.23
2019-05-09T11:42:33.528Z,15.57
2019-05-09T11:45:07.481Z,17.43
2019-05-09T11:47:45.436Z,15.00
2019-05-09T11:50:10.627Z,16.20
2019-05-09T11:52:41.673Z,14.83
2019-05-09T11:55:28.776Z,15.77
2019-05-09T11:57:48.334Z,13.63
2019-05-09T12:00:19.849Z,12.77
2019-05-09T12:02:50.932Z,12.17
2019-05-09T12:05:21.968Z,10.80
2019-05-09T12:07:53.094Z,13.28
2019-05-09T12:10:24.258Z,11.40
2019-05-09T12:12:57.488Z,12.23
2019-05-09T12:15:29.036Z,11.25
2019-05-09T12:18:07.477Z,11.20
2019-05-09T12:20:37.437Z,13.50
2019-05-09T12:23:07.975Z,10.25
2019-05-09T12:25:39.079Z,10.58
2019-05-09T12:28:10.221Z,10.60
2019-05-09T12:30:42.383Z,9.70
2019-05-09T12:33:13.521Z,10.63
2019-05-09T12:35:44.760Z,9.90
2019-05-09T12:38:18.030Z,11.48
2019-05-09T12:40:49.577Z,11.65
2019-05-09T12:43:21.708Z,11.88
2019-05-09T12:45:52.856Z,10.45
2019-05-09T12:48:24.032Z,10.90
2019-05-09T12:50:55.181Z,11.60
2019-05-09T12:53:27.953Z,9.75
2019-05-09T12:56:02.329Z,10.53
2019-05-09T12:58:33.957Z,9.78
2019-05-09T13:01:07.501Z,9.23
2019-05-09T13:03:38.781Z,9.50
2019-05-09T13:06:09.996Z,10.10
2019-05-09T13:08:41.159Z,9.75
2019-05-09T13:11:12.333Z,10.08
2019-05-09T13:13:43.384Z,9.18
2019-05-09T13:16:43.961Z,9.93
2019-05-09T13:19:09.225Z,11.10
2019-05-09T13:21:40.327Z,9.73
2019-05-09T13:24:11.486Z,9.43
2019-05-09T13:26:44.249Z,9.03
2019-05-09T13:29:15.334Z,9.38
2019-05-09T13:31:48.289Z,9.25
2019-05-09T13:34:19.211Z,9.65
2019-05-09T13:36:50.258Z,9.50
2019-05-09T13:39:21.353Z,8.75
2019-05-09T13:41:52.496Z,8.10
2019-05-09T13:44:23.594Z,7.50
2019-05-09T13:46:54.697Z,7.50
2019-05-09T13:49:25.833Z,6.75
2019-05-09T13:52:01.191Z,5.97
2019-05-09T13:54:29.658Z,7.87
2019-05-09T13:57:01.599Z,7.10
2019-05-09T13:59:33.028Z,8.10
2019-05-09T14:02:04.330Z,8.48
2019-05-09T14:04:35.496Z,8.95
2019-05-09T14:07:08.311Z,8.15
2019-05-09T14:09:39.645Z,8.20
2019-05-09T14:12:10.939Z,8.70
2019-05-09T14:14:42.120Z,9.90
2019-05-09T14:17:14.012Z,9.48
2019-05-09T14:19:46.983Z,8.83
2019-05-09T14:22:18.131Z,8.88
2019-05-09T14:24:49.272Z,6.95
2019-05-09T14:27:20.582Z,6.50
2019-05-09T14:29:51.720Z,7.53
2019-05-09T14:32:22.937Z,7.33
2019-05-09T14:34:54.081Z,7.47
2019-05-09T14:37:28.322Z,8.03
2019-05-09T14:40:03.795Z,7.58
2019-05-09T14:42:31.635Z,6.87
2019-05-09T14:45:02.852Z,7.10
2019-05-09T14:47:34.003Z,7.72
2019-05-09T14:50:05.291Z,6.95
2019-05-09T14:52:38.336Z,7.87
2019-05-09T14:55:09.264Z,6.10
2019-05-09T14:57:40.486Z,6.45
2019-05-09T15:00:12.471Z,5.40
2019-05-09T15:02:43.592Z,6.12
2019-05-09T15:05:14.834Z,6.75
2019-05-09T15:07:47.649Z,7.00
2019-05-09T15:10:18.975Z,7.13
2019-05-09T15:12:50.102Z,6.03
2019-05-09T15:15:21.359Z,7.33
2019-05-09T15:17:52.439Z,8.00
2019-05-09T15:20:23.683Z,7.53
2019-05-09T15:22:54.756Z,7.40
2019-05-09T15:25:28.145Z,6.20
2019-05-09T15:27:58.711Z,6.00
2019-05-09T15:30:29.839Z,6.77
2019-05-09T15:33:00.932Z,6.97
2019-05-09T15:35:32.219Z,6.90
2019-05-09T15:39:02.542Z,6.67
2019-05-09T15:41:38.660Z,6.60
2019-05-09T15:44:10.297Z,6.30
2019-05-09T15:46:49.267Z,5.87
2019-05-09T15:49:20.491Z,5.73
2019-05-09T15:51:51.978Z,6.30
2019-05-09T15:54:23.396Z,6.10
2019-05-09T15:56:58.060Z,6.27
2019-05-09T15:59:29.461Z,8.47
2019-05-09T16:02:00.587Z,8.33
2019-05-09T16:04:31.732Z,7.93
2019-05-09T16:07:02.832Z,7.93
2019-05-09T16:09:34.066Z,8.90
2019-05-09T16:12:07.609Z,9.60
2019-05-09T16:14:38.213Z,8.63
2019-05-09T16:17:09.615Z,9.60
2019-05-09T16:19:41.872Z,12.93
2019-05-09T16:22:13.088Z,11.13
2019-05-09T16:24:44.335Z,11.60
2019-05-09T16:27:15.508Z,11.37
2019-05-09T16:29:48.598Z,10.50
2019-05-09T16:32:19.471Z,12.50
2019-05-09T16:34:50.561Z,13.03
2019-05-09T16:37:22.764Z,11.80
2019-05-09T16:39:54.137Z,12.13
2019-05-09T16:42:27.474Z,11.70
2019-05-09T16:44:59.451Z,11.10
2019-05-09T16:47:31.017Z,12.27
2019-05-09T16:50:02.283Z,11.50
2019-05-09T16:52:33.486Z,11.90
2019-05-09T16:55:09.196Z,11.63
2019-05-09T16:57:40.534Z,10.70
2019-05-09T17:00:18.191Z,10.80
2019-05-09T17:02:48.943Z,10.70
2019-05-09T17:09:12.832Z,8.37
2019-05-09T17:11:44.000Z,8.03
2019-05-09T17:14:15.191Z,8.53
2019-05-09T17:16:53.286Z,10.83
2019-05-09T17:19:28.255Z,10.30
2019-05-09T17:22:09.402Z,7.90
2019-05-09T17:24:42.590Z,9.33
2019-05-09T17:27:18.171Z,8.47
2019-05-09T17:29:49.736Z,9.10
2019-05-09T17:32:20.957Z,10.40
2019-05-09T17:34:52.269Z,7.93
2019-05-09T17:37:23.643Z,9.00
2019-05-09T17:39:54.813Z,8.70
2019-05-09T17:42:27.742Z,8.77
2019-05-09T17:44:59.698Z,8.80
2019-05-09T17:47:31.667Z,10.93
2019-05-09T17:50:02.839Z,11.30
2019-05-09T17:52:34.207Z,9.70
2019-05-09T17:55:07.375Z,11.83
2019-05-09T17:57:40.221Z,20.57
2019-05-09T18:00:13.680Z,20.30
2019-05-09T18:02:44.837Z,20.70
2019-05-09T18:05:16.357Z,22.73
2019-05-09T18:07:48.483Z,22.93
2019-05-09T18:10:21.527Z,19.97
2019-05-09T18:12:52.708Z,19.27
2019-05-09T18:15:24.020Z,17.87
2019-05-09T18:17:55.123Z,18.00
2019-05-09T18:20:28.370Z,18.30
2019-05-09T18:22:59.145Z,19.03
2019-05-09T18:25:30.363Z,18.30
2019-05-09T18:28:01.691Z,19.53
2019-05-09T18:30:33.030Z,16.57
2019-05-09T18:33:09.243Z,16.30
2019-05-09T18:35:40.434Z,14.73
2019-05-09T18:38:17.600Z,14.97
2019-05-09T18:40:48.699Z,14.93
2019-05-09T18:43:19.951Z,15.97
2019-05-09T18:45:51.172Z,14.53
2019-05-09T18:48:22.334Z,16.83
2019-05-09T18:50:53.733Z,13.90
2019-05-09T18:53:26.582Z,13.60
2019-05-09T18:55:57.849Z,14.80
2019-05-09T18:58:29.039Z,14.53
2019-05-09T19:01:00.292Z,15.60
2019-05-09T19:03:31.575Z,16.07
2019-05-09T19:06:02.759Z,16.70
2019-05-09T19:08:36.266Z,16.60
2019-05-09T19:11:07.516Z,16.77
2019-05-09T19:13:39.715Z,17.77
2019-05-09T19:16:21.809Z,20.67
2019-05-09T19:19:14.790Z,27.50
2019-05-09T19:21:49.468Z,47.27
2019-05-09T19:24:20.587Z,60.83
2019-05-09T19:26:52.026Z,62.20
2019-05-09T19:29:23.214Z,87.83
2019-05-09T19:31:54.435Z,78.07
2019-05-09T19:34:25.584Z,96.93
2019-05-09T19:36:56.797Z,84.57
2019-05-09T19:39:27.961Z,77.43
2019-05-09T19:42:06.985Z,64.80
2019-05-09T19:44:43.338Z,57.53
2019-05-09T19:47:14.763Z,53.23
2019-05-09T19:49:46.107Z,52.13
2019-05-09T19:52:17.292Z,48.50
2019-05-09T19:54:48.661Z,46.77
2019-05-09T19:57:20.256Z,50.07
2019-05-09T19:59:51.691Z,47.93
2019-05-09T20:02:22.872Z,50.47
2019-05-09T20:04:55.807Z,45.83
2019-05-09T20:07:27.104Z,47.83
2019-05-09T20:10:05.410Z,57.43
2019-05-09T20:12:43.577Z,52.33
2019-05-09T20:15:16.848Z,47.53
2019-05-09T20:17:48.275Z,47.23
2019-05-09T20:20:20.068Z,38.87
2019-05-09T20:22:53.265Z,43.93
2019-05-09T20:25:24.245Z,43.10
2019-05-09T20:27:55.972Z,41.70
2019-05-09T20:30:27.532Z,35.83
2019-05-09T20:32:58.823Z,38.30
2019-05-09T20:35:30.481Z,34.63
2019-05-09T20:38:01.963Z,36.20
2019-05-09T20:40:33.520Z,30.40
2019-05-09T20:43:04.935Z,29.20
2019-05-09T20:45:38.737Z,25.33
2019-05-09T20:48:10.140Z,26.60
2019-05-09T20:50:44.444Z,30.13
2019-05-09T20:53:14.785Z,27.77
2019-05-09T20:55:46.180Z,28.97
2019-05-09T20:58:17.579Z,26.13
2019-05-09T21:00:48.980Z,31.17
2019-05-09T21:03:20.286Z,26.20
2019-05-09T21:05:51.810Z,26.23
2019-05-09T21:08:23.384Z,25.47
2019-05-09T21:10:55.098Z,24.80
2019-05-09T21:13:26.650Z,23.37
2019-05-09T21:15:58.309Z,24.73
2019-05-09T21:18:29.825Z,27.00
2019-05-09T21:21:02.271Z,29.57
2019-05-09T21:23:33.765Z,23.37
2019-05-09T21:26:05.239Z,23.60
2019-05-09T21:28:36.732Z,22.30
2019-05-09T21:31:08.229Z,23.57
2019-05-09T21:33:39.738Z,23.53
2019-05-09T21:36:11.211Z,21.87
2019-05-09T21:38:42.506Z,30.60
2019-05-09T21:41:14.390Z,24.60
2019-05-09T21:43:45.909Z,21.57
2019-05-09T21:46:17.344Z,21.63
2019-05-09T21:48:48.848Z,21.73
2019-05-09T21:51:20.685Z,23.17
2019-05-09T21:53:52.525Z,24.57
2019-05-09T21:56:24.162Z,22.13
2019-05-09T21:58:55.266Z,21.50
2019-05-09T22:01:27.041Z,22.57
2019-05-09T22:03:58.440Z,24.57
2019-05-09T22:06:29.802Z,25.73
2019-05-09T22:09:01.142Z,27.40
2019-05-09T22:11:33.977Z,27.93
2019-05-09T22:14:05.601Z,26.33
2019-05-09T22:16:37.083Z,23.73
2019-05-09T22:19:09.345Z,21.63
2019-05-09T22:21:41.165Z,21.77
2019-05-09T22:24:12.456Z,19.13
2019-05-09T22:26:43.957Z,21.70
2019-05-09T22:29:15.431Z,20.10
2019-05-09T22:31:46.730Z,23.03
2019-05-09T22:34:18.230Z,21.23
2019-05-09T22:36:49.436Z,21.47
2019-05-09T22:39:20.783Z,22.00
2019-05-09T22:41:51.978Z,21.70
2019-05-09T22:44:23.230Z,20.70
2019-05-09T22:46:54.724Z,19.13
2019-05-09T22:49:26.924Z,21.93
2019-05-09T22:51:58.520Z,18.97
2019-05-09T22:54:29.845Z,17.40
2019-05-09T22:57:01.231Z,17.17
2019-05-09T22:59:34.411Z,19.97
2019-05-09T23:02:07.061Z,21.30
2019-05-09T23:04:38.905Z,23.27
2019-05-09T23:07:10.111Z,21.67
2019-05-09T23:09:41.237Z,19.73
2019-05-09T23:12:12.398Z,20.37
2019-05-09T23:14:43.619Z,20.90
2019-05-09T23:17:14.840Z,19.53
2019-05-09T23:19:46.144Z,18.00
2019-05-09T23:22:17.666Z,17.03
2019-05-09T23:24:48.895Z,17.00
2019-05-09T23:27:20.440Z,17.80
2019-05-09T23:29:51.732Z,15.50
2019-05-09T23:32:36.242Z,21.17
2019-05-09T23:35:07.573Z,17.13
2019-05-09T23:37:38.643Z,16.80
2019-05-09T23:40:10.256Z,15.73
2019-05-09T23:42:41.353Z,16.67
2019-05-09T23:45:12.524Z,16.20
2019-05-09T23:47:44.698Z,14.53
2019-05-09T23:50:15.883Z,17.63
2019-05-09T23:52:46.937Z,15.43
2019-05-09T23:55:36.885Z,16.10
2019-05-09T23:58:25.763Z,15.60
